Time;durP1;ratioP1;P1;durP2;ratioP2;P2;SDS_P1;SDS_P2;PMS_P1;PMS_P2;Temp;Humidity;BMP_temperature;BMP_pressure;BME280_temperature;BME280_humidity;BME280_pressure;Samples;Min_cycle;Max_cycle;Signal;HPM_P1;HPM_P2
2022/09/18 00:00:04;;;;;;;;;;;19.40;63.10;;;;;;4497546;31;20033;-63
2022/09/18 00:02:30;;;;;;;;;;;19.40;63.20;;;;;;4497261;31;20067;-63
2022/09/18 00:04:56;;;;;;;;;;;19.40;63.10;;;;;;4498309;31;20025;-63
2022/09/18 00:07:22;;;;;;;;;;;19.40;63.20;;;;;;4497247;31;20022;-63
2022/09/18 00:09:47;;;;;;;;;;;19.40;63.10;;;;;;4497298;31;20029;-63
2022/09/18 00:12:13;;;;;;;;;;;19.40;63.20;;;;;;4496921;31;20096;-63
2022/09/18 00:14:39;;;;;;;;;;;19.40;63.20;;;;;;4485983;31;20159;-63
2022/09/18 00:17:05;;;;;;;;;;;19.40;63.10;;;;;;4481733;31;20180;-63
2022/09/18 00:19:30;;;;;;;;;;;19.40;63.20;;;;;;4470051;31;20503;-63
2022/09/18 00:21:56;;;;;;;;;;;19.40;63.20;;;;;;4497880;31;20167;-63
2022/09/18 00:24:23;;;;;;;;;;;19.40;63.20;;;;;;4482594;31;20021;-63
2022/09/18 00:26:49;;;;;;;;;;;19.40;63.20;;;;;;4497912;31;20025;-63
2022/09/18 00:29:16;;;;;;;;;;;19.40;63.20;;;;;;4496920;31;20037;-63
2022/09/18 00:31:43;;;;;;;;;;;19.30;63.10;;;;;;4497459;31;20130;-63
2022/09/18 00:34:10;;;;;;;;;;;19.40;63.20;;;;;;4497434;31;20051;-63
2022/09/18 00:36:37;;;;;;;;;;;19.30;63.10;;;;;;4480324;32;20045;-63
2022/09/18 00:39:04;;;;;;;;;;;19.30;63.10;;;;;;4496484;31;20147;-63
2022/09/18 00:41:31;;;;;;;;;;;19.30;63.10;;;;;;4466857;32;20042;-63
2022/09/18 00:44:16;;;;;;;;;;;19.30;63.10;;;;;;4495339;31;20441;-63
2022/09/18 00:46:43;;;;;;;;;;;19.30;63.10;;;;;;4497127;31;20017;-63
2022/09/18 00:49:08;;;;;;;;;;;19.30;63.10;;;;;;4482669;31;20047;-63
2022/09/18 00:51:35;;;;;;;;;;;19.30;63.10;;;;;;4497347;31;20025;-63
2022/09/18 00:54:07;;;;;;;;;;;19.30;63.10;;;;;;4496644;31;20040;-63
2022/09/18 00:56:33;;;;;;;;;;;19.30;63.10;;;;;;4497880;31;20446;-63
2022/09/18 00:58:59;;;;;;;;;;;19.30;63.10;;;;;;4482367;31;20067;-63
2022/09/18 01:01:25;;;;;;;;;;;19.30;63.10;;;;;;4497120;31;20081;-63
2022/09/18 01:03:50;;;;;;;;;;;19.30;63.10;;;;;;4479883;32;20087;-63
2022/09/18 01:06:21;;;;;;;;;;;19.30;63.20;;;;;;4481458;31;20027;-63
2022/09/18 01:08:59;;;;;;;;;;;19.30;63.20;;;;;;4497159;31;20060;-63
2022/09/18 01:11:45;;;;;;;;;;;19.30;63.20;;;;;;4496368;31;20504;-63
2022/09/18 01:14:34;;;;;;;;;;;19.30;64.00;;;;;;4497459;31;20109;-63
2022/09/18 01:17:04;;;;;;;;;;;19.30;63.20;;;;;;4474742;31;20025;-63
2022/09/18 01:19:36;;;;;;;;;;;19.30;63.10;;;;;;4496533;31;20611;-63
2022/09/18 01:22:05;;;;;;;;;;;19.20;63.20;;;;;;4497496;31;20236;-63
2022/09/18 01:24:54;;;;;;;;;;;19.30;63.20;;;;;;4479868;32;20509;-63
2022/09/18 01:27:38;;;;;;;;;;;19.20;63.10;;;;;;4481310;32;20029;-63
2022/09/18 01:30:09;;;;;;;;;;;19.30;63.20;;;;;;4480360;32;20146;-63
2022/09/18 01:32:47;;;;;;;;;;;19.20;63.10;;;;;;4496556;32;20045;-63
2022/09/18 01:35:16;;;;;;;;;;;19.20;63.20;;;;;;4481137;32;20083;-63
2022/09/18 01:37:41;;;;;;;;;;;19.20;63.20;;;;;;4496407;32;20033;-63
2022/09/18 01:40:13;;;;;;;;;;;19.20;63.20;;;;;;4480054;32;20085;-63
2022/09/18 01:42:41;;;;;;;;;;;19.20;63.10;;;;;;4485670;32;20051;-63
2022/09/18 01:45:08;;;;;;;;;;;19.20;63.20;;;;;;4482369;32;20436;-63
2022/09/18 01:47:37;;;;;;;;;;;19.20;63.20;;;;;;4496566;32;20087;-63
2022/09/18 01:50:03;;;;;;;;;;;19.20;63.20;;;;;;4496079;32;20036;-63
2022/09/18 01:52:37;;;;;;;;;;;19.20;63.20;;;;;;4497219;32;20044;-63
2022/09/18 01:55:05;;;;;;;;;;;19.20;63.20;;;;;;4496448;32;20043;-63
2022/09/18 01:57:43;;;;;;;;;;;19.20;63.20;;;;;;4496374;32;20234;-63
2022/09/18 02:00:10;;;;;;;;;;;19.20;63.20;;;;;;4479780;32;20405;-63
2022/09/18 02:02:36;;;;;;;;;;;19.20;63.20;;;;;;4493396;32;20045;-63
2022/09/18 02:05:04;;;;;;;;;;;19.20;63.20;;;;;;4497111;32;20053;-63
2022/09/18 02:07:33;;;;;;;;;;;19.20;63.20;;;;;;4482087;32;20023;-63
2022/09/18 02:09:59;;;;;;;;;;;19.20;63.20;;;;;;4496768;32;20238;-63
2022/09/18 02:12:25;;;;;;;;;;;19.20;63.20;;;;;;4496304;32;20041;-63
2022/09/18 02:14:53;;;;;;;;;;;19.20;63.20;;;;;;4484867;31;20098;-63
2022/09/18 02:17:22;;;;;;;;;;;19.20;63.20;;;;;;4499507;31;20127;-63
2022/09/18 02:19:49;;;;;;;;;;;19.20;63.20;;;;;;4497815;31;20033;-63
2022/09/18 02:22:18;;;;;;;;;;;19.20;63.20;;;;;;4500125;31;20045;-63
2022/09/18 02:24:45;;;;;;;;;;;19.20;63.20;;;;;;4498834;31;20029;-63
2022/09/18 02:27:12;;;;;;;;;;;19.20;63.20;;;;;;4499569;31;20040;-63
2022/09/18 02:29:38;;;;;;;;;;;19.20;64.10;;;;;;4484782;31;20079;-63
2022/09/18 02:32:05;;;;;;;;;;;19.20;64.10;;;;;;4499111;31;20033;-63
2022/09/18 02:34:31;;;;;;;;;;;19.20;63.30;;;;;;4499179;31;20032;-63
2022/09/18 02:36:57;;;;;;;;;;;19.20;63.30;;;;;;4497633;31;20041;-63
2022/09/18 02:39:42;;;;;;;;;;;19.20;63.20;;;;;;4499808;31;20201;-63
2022/09/18 02:42:08;;;;;;;;;;;19.10;63.20;;;;;;4488896;31;20044;-63
2022/09/18 02:44:52;;;;;;;;;;;19.10;63.20;;;;;;4499024;31;20017;-64
2022/09/18 02:47:24;;;;;;;;;;;19.10;63.20;;;;;;4489169;31;20041;-63
2022/09/18 02:49:53;;;;;;;;;;;19.10;63.20;;;;;;4498071;31;20039;-63
2022/09/18 02:52:31;;;;;;;;;;;19.10;63.20;;;;;;4499648;31;20163;-63
2022/09/18 02:55:01;;;;;;;;;;;19.10;63.20;;;;;;4498641;31;20084;-63
2022/09/18 02:57:50;;;;;;;;;;;19.10;63.30;;;;;;4499018;31;20036;-63
2022/09/18 03:00:17;;;;;;;;;;;19.10;63.20;;;;;;4488376;31;20035;-63
2022/09/18 03:02:49;;;;;;;;;;;19.10;63.20;;;;;;4498254;31;20114;-63
2022/09/18 03:05:15;;;;;;;;;;;19.10;63.20;;;;;;4499364;31;20031;-63
2022/09/18 03:07:41;;;;;;;;;;;19.10;63.30;;;;;;4498360;31;20052;-63
2022/09/18 03:10:08;;;;;;;;;;;19.10;63.20;;;;;;4498648;31;20033;-63
2022/09/18 03:12:35;;;;;;;;;;;19.10;63.20;;;;;;4498363;31;20041;-63
2022/09/18 03:15:00;;;;;;;;;;;19.10;63.30;;;;;;4498553;31;20039;-63
2022/09/18 03:17:26;;;;;;;;;;;19.10;63.20;;;;;;4497361;31;20083;-63
2022/09/18 03:19:53;;;;;;;;;;;19.10;63.20;;;;;;4498230;31;20032;-63
2022/09/18 03:22:19;;;;;;;;;;;19.10;64.10;;;;;;4499190;31;20033;-63
2022/09/18 03:24:45;;;;;;;;;;;19.10;63.30;;;;;;4483119;32;20076;-63
2022/09/18 03:27:11;;;;;;;;;;;19.10;63.30;;;;;;4498673;31;20485;-63
2022/09/18 03:29:37;;;;;;;;;;;19.10;63.30;;;;;;4498050;31;20036;-63
2022/09/18 03:32:02;;;;;;;;;;;19.10;63.30;;;;;;4498171;31;20017;-63
2022/09/18 03:34:29;;;;;;;;;;;19.00;63.20;;;;;;4498510;31;20044;-63
2022/09/18 03:36:55;;;;;;;;;;;19.00;63.30;;;;;;4497788;31;20028;-63
2022/09/18 03:39:20;;;;;;;;;;;19.00;63.30;;;;;;4498765;31;20066;-63
2022/09/18 03:41:46;;;;;;;;;;;19.00;63.20;;;;;;4497893;31;20410;-63
2022/09/18 03:44:12;;;;;;;;;;;19.00;63.20;;;;;;4498410;31;20458;-63
2022/09/18 03:46:37;;;;;;;;;;;19.00;63.30;;;;;;4470644;31;20099;-63
2022/09/18 03:49:03;;;;;;;;;;;19.00;63.20;;;;;;4497523;31;20041;-63
2022/09/18 03:51:29;;;;;;;;;;;19.00;63.30;;;;;;4483954;31;20013;-63
2022/09/18 03:53:54;;;;;;;;;;;19.00;63.30;;;;;;4497675;31;20482;-63
2022/09/18 03:56:26;;;;;;;;;;;19.00;63.30;;;;;;4498440;31;20037;-63
2022/09/18 03:58:52;;;;;;;;;;;19.00;63.30;;;;;;4497408;31;20021;-63
2022/09/18 04:01:18;;;;;;;;;;;19.00;63.30;;;;;;4483950;31;20155;-63
2022/09/18 04:03:44;;;;;;;;;;;19.00;63.30;;;;;;4483577;31;20021;-63
2022/09/18 04:06:09;;;;;;;;;;;19.00;63.30;;;;;;4497670;31;20024;-63
2022/09/18 04:08:36;;;;;;;;;;;19.00;63.30;;;;;;4497680;31;20523;-63
2022/09/18 04:11:05;;;;;;;;;;;19.00;63.30;;;;;;4497355;31;20175;-63
2022/09/18 04:13:32;;;;;;;;;;;19.00;63.30;;;;;;4498291;31;20036;-63
2022/09/18 04:15:57;;;;;;;;;;;19.00;63.30;;;;;;4497057;31;20155;-63
2022/09/18 04:18:23;;;;;;;;;;;19.00;63.30;;;;;;4496793;31;20114;-63
2022/09/18 04:20:50;;;;;;;;;;;19.00;63.30;;;;;;4497340;31;20068;-63
2022/09/18 04:23:16;;;;;;;;;;;19.00;63.30;;;;;;4497724;31;20024;-63
2022/09/18 04:25:43;;;;;;;;;;;19.00;63.40;;;;;;4497521;31;20033;-63
2022/09/18 04:28:09;;;;;;;;;;;19.00;63.40;;;;;;4497377;31;20076;-63
2022/09/18 04:30:36;;;;;;;;;;;19.00;63.30;;;;;;4483781;31;20037;-63
2022/09/18 04:33:02;;;;;;;;;;;19.00;63.40;;;;;;4496896;31;20497;-63
2022/09/18 04:35:28;;;;;;;;;;;19.00;63.40;;;;;;4497870;31;20044;-63
2022/09/18 04:37:54;;;;;;;;;;;19.00;63.40;;;;;;4497006;31;20039;-63
2022/09/18 04:40:21;;;;;;;;;;;19.00;63.40;;;;;;4497326;31;20045;-63
2022/09/18 04:42:47;;;;;;;;;;;18.90;63.30;;;;;;4497291;31;20049;-63
2022/09/18 04:45:13;;;;;;;;;;;18.90;63.30;;;;;;4496990;31;20032;-63
2022/09/18 04:47:40;;;;;;;;;;;18.90;63.30;;;;;;4497390;31;20044;-63
2022/09/18 04:50:07;;;;;;;;;;;18.90;63.30;;;;;;4482315;31;20029;-63
2022/09/18 04:52:34;;;;;;;;;;;18.90;63.30;;;;;;4497627;31;20421;-63
2022/09/18 04:55:00;;;;;;;;;;;18.90;63.40;;;;;;4496790;31;20043;-63
2022/09/18 04:57:26;;;;;;;;;;;18.90;63.40;;;;;;4496133;31;20033;-63
2022/09/18 04:59:52;;;;;;;;;;;18.90;63.30;;;;;;4497038;31;20183;-63
2022/09/18 05:02:18;;;;;;;;;;;18.90;63.30;;;;;;4482756;31;20037;-63
2022/09/18 05:04:44;;;;;;;;;;;18.90;63.40;;;;;;4496170;31;20029;-63
2022/09/18 05:07:10;;;;;;;;;;;18.90;63.30;;;;;;4496638;31;20031;-63
2022/09/18 05:09:35;;;;;;;;;;;18.90;63.40;;;;;;4483275;31;20025;-63
2022/09/18 05:12:02;;;;;;;;;;;18.90;63.40;;;;;;4496590;31;20047;-63
2022/09/18 05:14:27;;;;;;;;;;;18.90;63.30;;;;;;4482896;31;20049;-63
2022/09/18 05:16:55;;;;;;;;;;;18.90;63.40;;;;;;4496928;31;20021;-63
2022/09/18 05:19:22;;;;;;;;;;;18.90;63.40;;;;;;4496304;31;20033;-63
2022/09/18 05:21:49;;;;;;;;;;;18.90;63.40;;;;;;4497352;31;20045;-63
2022/09/18 05:24:16;;;;;;;;;;;18.90;63.40;;;;;;4496289;31;20127;-63
2022/09/18 05:26:42;;;;;;;;;;;18.90;63.50;;;;;;4497378;32;20118;-63
2022/09/18 05:29:08;;;;;;;;;;;18.90;63.40;;;;;;4496339;32;20173;-63
2022/09/18 05:31:34;;;;;;;;;;;18.90;63.50;;;;;;4496997;32;20106;-63
2022/09/18 05:34:00;;;;;;;;;;;18.90;63.50;;;;;;4496936;32;20462;-63
2022/09/18 05:36:27;;;;;;;;;;;18.90;63.50;;;;;;4496441;32;20080;-63
2022/09/18 05:38:53;;;;;;;;;;;18.90;63.40;;;;;;4497187;32;20611;-63
2022/09/18 05:41:18;;;;;;;;;;;18.90;63.40;;;;;;4495950;32;20063;-63
2022/09/18 05:43:44;;;;;;;;;;;18.90;63.50;;;;;;4497316;32;20191;-63
2022/09/18 05:46:10;;;;;;;;;;;18.90;63.50;;;;;;4482098;32;20088;-63
2022/09/18 05:48:36;;;;;;;;;;;18.90;63.50;;;;;;4483274;31;20056;-63
2022/09/18 05:51:02;;;;;;;;;;;18.90;63.50;;;;;;4499700;31;20065;-63
2022/09/18 05:53:28;;;;;;;;;;;18.80;63.40;;;;;;4499559;31;20130;-63
2022/09/18 05:55:53;;;;;;;;;;;18.80;63.40;;;;;;4500157;31;20025;-63
2022/09/18 05:58:19;;;;;;;;;;;18.80;63.40;;;;;;4484969;31;20021;-63
2022/09/18 06:00:46;;;;;;;;;;;18.80;63.40;;;;;;4500421;31;20393;-63
2022/09/18 06:03:13;;;;;;;;;;;18.80;63.40;;;;;;4499210;31;20110;-63
2022/09/18 06:05:41;;;;;;;;;;;18.80;63.50;;;;;;4498074;31;20075;-63
2022/09/18 06:08:08;;;;;;;;;;;18.80;63.50;;;;;;4485579;31;20028;-63
2022/09/18 06:10:38;;;;;;;;;;;18.80;63.40;;;;;;4499359;31;20037;-64
2022/09/18 06:13:05;;;;;;;;;;;18.80;63.50;;;;;;4500116;31;20039;-63
2022/09/18 06:15:32;;;;;;;;;;;18.80;63.50;;;;;;4499086;31;20080;-63
2022/09/18 06:17:58;;;;;;;;;;;18.80;63.40;;;;;;4500134;31;20033;-63
2022/09/18 06:20:24;;;;;;;;;;;18.80;63.40;;;;;;4498095;31;20018;-64
2022/09/18 06:22:50;;;;;;;;;;;18.80;63.50;;;;;;4499833;31;20580;-64
2022/09/18 06:25:18;;;;;;;;;;;18.80;63.50;;;;;;4485299;31;20037;-63
2022/09/18 06:27:45;;;;;;;;;;;18.80;63.50;;;;;;4499343;31;20033;-63
2022/09/18 06:30:11;;;;;;;;;;;18.80;63.50;;;;;;4499780;31;20061;-63
2022/09/18 06:32:37;;;;;;;;;;;18.80;63.50;;;;;;4498861;31;20060;-63
2022/09/18 06:35:03;;;;;;;;;;;18.80;63.60;;;;;;4500273;31;20025;-63
2022/09/18 06:37:29;;;;;;;;;;;18.80;63.50;;;;;;4498950;31;20072;-64
2022/09/18 06:39:55;;;;;;;;;;;18.80;63.50;;;;;;4485451;31;20273;-63
2022/09/18 06:42:21;;;;;;;;;;;18.80;63.50;;;;;;4499342;31;20025;-63
2022/09/18 06:44:47;;;;;;;;;;;18.80;63.50;;;;;;4484920;31;20113;-63
2022/09/18 06:47:13;;;;;;;;;;;18.80;63.50;;;;;;4499369;31;20033;-63
2022/09/18 06:49:39;;;;;;;;;;;18.80;63.60;;;;;;4484104;31;20078;-64
2022/09/18 06:52:05;;;;;;;;;;;18.80;63.50;;;;;;4500254;31;20076;-64
2022/09/18 06:54:30;;;;;;;;;;;18.80;63.60;;;;;;4498439;31;20024;-64
2022/09/18 06:56:56;;;;;;;;;;;18.80;63.50;;;;;;4485403;31;20025;-63
2022/09/18 06:59:23;;;;;;;;;;;18.80;63.50;;;;;;4498314;31;20028;-63
2022/09/18 07:01:49;;;;;;;;;;;18.80;63.50;;;;;;4484281;31;20079;-63
2022/09/18 07:04:15;;;;;;;;;;;18.80;63.60;;;;;;4499220;31;20037;-63
2022/09/18 07:06:44;;;;;;;;;;;18.80;63.60;;;;;;4498525;31;20029;-63
2022/09/18 07:09:10;;;;;;;;;;;18.80;63.60;;;;;;4499356;31;20188;-63
2022/09/18 07:11:36;;;;;;;;;;;18.80;63.60;;;;;;4498329;31;20155;-64
2022/09/18 07:14:06;;;;;;;;;;;18.80;63.60;;;;;;4482911;31;20114;-64
2022/09/18 07:16:33;;;;;;;;;;;18.80;63.60;;;;;;4484834;31;20052;-64
2022/09/18 07:19:02;;;;;;;;;;;18.70;63.70;;;;;;4483955;31;20035;-65
2022/09/18 07:21:28;;;;;;;;;;;18.70;63.50;;;;;;4483283;31;20029;-64
2022/09/18 07:23:54;;;;;;;;;;;18.70;63.60;;;;;;4468199;31;20034;-64
2022/09/18 07:26:20;;;;;;;;;;;18.70;63.80;;;;;;4485331;31;20029;-67
2022/09/18 07:28:45;;;;;;;;;;;18.70;63.80;;;;;;4483900;31;20045;-64
2022/09/18 07:31:11;;;;;;;;;;;18.70;63.90;;;;;;4497241;31;20040;-64
2022/09/18 07:33:37;;;;;;;;;;;18.70;64.00;;;;;;4498312;31;20005;-64
2022/09/18 07:36:04;;;;;;;;;;;18.70;64.10;;;;;;4498163;31;20056;-64
2022/09/18 07:38:33;;;;;;;;;;;18.70;64.10;;;;;;4475271;31;20041;-64
2022/09/18 07:41:02;;;;;;;;;;;18.70;64.20;;;;;;4497871;31;20502;-65
2022/09/18 07:43:30;;;;;;;;;;;18.70;64.30;;;;;;4499021;31;20083;-64
2022/09/18 07:45:56;;;;;;;;;;;18.80;64.30;;;;;;4497840;31;20055;-64
2022/09/18 07:48:23;;;;;;;;;;;18.70;64.20;;;;;;4496941;31;20021;-63
2022/09/18 07:50:48;;;;;;;;;;;18.70;65.10;;;;;;4498018;31;20040;-62
2022/09/18 07:53:16;;;;;;;;;;;18.80;64.30;;;;;;4483590;31;20086;-64
2022/09/18 07:55:46;;;;;;;;;;;18.80;64.40;;;;;;4498193;31;20033;-63
2022/09/18 07:58:12;;;;;;;;;;;18.70;64.30;;;;;;4496368;31;20036;-63
2022/09/18 08:00:37;;;;;;;;;;;18.80;64.30;;;;;;4498842;31;20155;-63
2022/09/18 08:03:10;;;;;;;;;;;18.80;64.40;;;;;;4497378;31;20114;-63
2022/09/18 08:05:37;;;;;;;;;;;18.70;64.40;;;;;;4497112;31;20089;-63
2022/09/18 08:08:07;;;;;;;;;;;18.80;64.40;;;;;;4496735;31;20037;-63
2022/09/18 08:10:33;;;;;;;;;;;18.80;64.40;;;;;;4486347;31;20025;-64
2022/09/18 08:13:01;;;;;;;;;;;18.80;64.50;;;;;;4497157;31;20033;-63
2022/09/18 08:15:27;;;;;;;;;;;18.80;64.40;;;;;;4496283;31;20025;-63
2022/09/18 08:17:53;;;;;;;;;;;18.80;64.50;;;;;;4498202;31;20040;-63
2022/09/18 08:20:19;;;;;;;;;;;18.80;64.50;;;;;;4497282;31;20025;-64
2022/09/18 08:22:45;;;;;;;;;;;18.80;64.50;;;;;;4496787;31;20032;-65
2022/09/18 08:25:11;;;;;;;;;;;18.80;64.50;;;;;;4470463;31;20482;-64
2022/09/18 08:27:37;;;;;;;;;;;18.80;64.50;;;;;;4497555;31;20022;-64
2022/09/18 08:30:05;;;;;;;;;;;18.80;64.50;;;;;;4496806;31;20079;-64
2022/09/18 08:32:31;;;;;;;;;;;18.80;65.40;;;;;;4483202;31;20041;-64
2022/09/18 08:34:59;;;;;;;;;;;18.80;64.40;;;;;;4484076;31;20461;-64
2022/09/18 08:37:25;;;;;;;;;;;18.80;64.40;;;;;;4497093;31;20037;-64
2022/09/18 08:39:52;;;;;;;;;;;18.80;64.40;;;;;;4497700;31;20114;-64
2022/09/18 08:42:18;;;;;;;;;;;18.80;64.50;;;;;;4497273;31;20043;-64
2022/09/18 08:44:47;;;;;;;;;;;18.80;64.50;;;;;;4496843;31;20072;-63
2022/09/18 08:47:16;;;;;;;;;;;18.80;64.60;;;;;;4494289;31;20029;-63
2022/09/18 08:49:48;;;;;;;;;;;18.80;64.60;;;;;;4486261;31;20163;-63
2022/09/18 08:52:22;;;;;;;;;;;18.80;64.60;;;;;;4481735;31;20092;-63
2022/09/18 08:54:50;;;;;;;;;;;18.80;64.70;;;;;;4482861;31;20068;-63
2022/09/18 08:57:18;;;;;;;;;;;18.80;64.80;;;;;;4484435;31;20056;-65
2022/09/18 08:59:46;;;;;;;;;;;18.80;64.60;;;;;;4493274;31;20033;-63
2022/09/18 09:02:16;;;;;;;;;;;18.80;64.70;;;;;;4482626;31;20489;-63
2022/09/18 09:04:46;;;;;;;;;;;18.80;64.70;;;;;;4497994;31;20040;-63
2022/09/18 09:07:12;;;;;;;;;;;18.80;64.70;;;;;;4482394;31;20045;-64
2022/09/18 09:09:54;;;;;;;;;;;18.80;64.60;;;;;;4497492;31;20036;-64
2022/09/18 09:12:20;;;;;;;;;;;18.80;64.70;;;;;;4497092;31;20665;-64
2022/09/18 09:14:46;;;;;;;;;;;18.80;64.40;;;;;;4497052;31;20159;-63
2022/09/18 09:17:12;;;;;;;;;;;18.70;64.20;;;;;;4497196;31;20102;-63
2022/09/18 09:19:47;;;;;;;;;;;18.80;64.10;;;;;;4481723;31;20044;-63
2022/09/18 09:22:13;;;;;;;;;;;18.80;64.30;;;;;;4491228;31;20029;-65
2022/09/18 09:24:42;;;;;;;;;;;18.80;64.50;;;;;;4481667;31;20076;-65
2022/09/18 09:27:26;;;;;;;;;;;18.80;64.90;;;;;;4497205;31;20632;-65
2022/09/18 09:30:03;;;;;;;;;;;18.80;65.00;;;;;;4496850;32;20047;-63
2022/09/18 09:32:35;;;;;;;;;;;18.80;65.00;;;;;;4496289;32;20047;-64
2022/09/18 09:35:25;;;;;;;;;;;18.80;65.00;;;;;;4491034;32;20021;-64
2022/09/18 09:37:52;;;;;;;;;;;18.80;65.10;;;;;;4495947;32;20033;-64
2022/09/18 09:40:37;;;;;;;;;;;18.80;65.10;;;;;;4480608;32;20026;-66
2022/09/18 09:43:23;;;;;;;;;;;18.80;65.20;;;;;;4487219;32;20056;-64
2022/09/18 09:45:51;;;;;;;;;;;18.80;65.30;;;;;;4481757;32;20163;-64
2022/09/18 09:48:17;;;;;;;;;;;18.80;65.00;;;;;;4483089;32;20040;-64
2022/09/18 09:51:04;;;;;;;;;;;18.80;65.10;;;;;;4481399;32;20022;-63
2022/09/18 09:53:30;;;;;;;;;;;18.80;65.20;;;;;;4479369;32;20021;-65
2022/09/18 09:55:57;;;;;;;;;;;18.80;65.40;;;;;;4479041;32;20095;-62
2022/09/18 09:58:39;;;;;;;;;;;18.80;65.40;;;;;;4482050;32;20171;-63
2022/09/18 10:01:10;;;;;;;;;;;18.80;65.50;;;;;;4482788;32;20429;-64
2022/09/18 10:03:55;;;;;;;;;;;18.80;65.30;;;;;;4481808;32;20026;-63
2022/09/18 10:06:23;;;;;;;;;;;18.80;65.50;;;;;;4483470;32;20155;-64
2022/09/18 10:08:55;;;;;;;;;;;18.80;65.60;;;;;;4483341;32;20044;-63
2022/09/18 10:11:21;;;;;;;;;;;18.80;65.40;;;;;;4483365;32;20147;-63
2022/09/18 10:14:03;;;;;;;;;;;18.90;65.40;;;;;;4483461;32;20037;-64
2022/09/18 10:16:32;;;;;;;;;;;18.90;65.50;;;;;;4481604;32;20030;-64
2022/09/18 10:18:58;;;;;;;;;;;18.90;65.40;;;;;;4481094;32;20060;-64
2022/09/18 10:21:33;;;;;;;;;;;18.80;65.30;;;;;;4482752;32;20071;-63
2022/09/18 10:24:17;;;;;;;;;;;18.90;64.90;;;;;;4480823;32;20040;-64
2022/09/18 10:27:19;;;;;;;;;;;18.90;64.60;;;;;;4490628;32;20029;-65
2022/09/18 10:29:46;;;;;;;;;;;18.90;64.30;;;;;;4415024;32;20034;-64
2022/09/18 10:32:12;;;;;;;;;;;18.90;64.30;;;;;;4466123;32;20025;-64
2022/09/18 10:34:48;;;;;;;;;;;18.90;64.20;;;;;;4497623;31;20029;-64
2022/09/18 10:37:15;;;;;;;;;;;18.90;64.20;;;;;;4498516;31;20114;-65
2022/09/18 10:39:51;;;;;;;;;;;18.90;64.10;;;;;;4499131;31;20233;-65
2022/09/18 10:42:20;;;;;;;;;;;18.90;64.10;;;;;;4498721;31;20025;-64
2022/09/18 10:44:52;;;;;;;;;;;18.90;64.00;;;;;;4498657;31;20029;-64
2022/09/18 10:47:25;;;;;;;;;;;18.90;63.90;;;;;;4496810;31;20526;-65
2022/09/18 10:49:51;;;;;;;;;;;18.90;63.80;;;;;;4490629;31;20037;-64
2022/09/18 10:52:26;;;;;;;;;;;18.90;63.70;;;;;;4499201;31;20063;-64
2022/09/18 10:55:04;;;;;;;;;;;18.90;63.60;;;;;;4497726;31;20083;-64
2022/09/18 10:57:30;;;;;;;;;;;18.90;63.40;;;;;;4491983;31;20036;-65
2022/09/18 10:59:56;;;;;;;;;;;18.90;63.30;;;;;;4496680;31;20049;-64
2022/09/18 11:02:25;;;;;;;;;;;18.90;63.50;;;;;;4495986;31;20032;-63
2022/09/18 11:04:52;;;;;;;;;;;18.90;63.50;;;;;;4499167;31;20039;-64
2022/09/18 11:07:18;;;;;;;;;;;18.90;63.20;;;;;;4495865;31;20040;-64
2022/09/18 11:09:45;;;;;;;;;;;18.90;63.30;;;;;;4497674;31;20099;-65
2022/09/18 11:12:13;;;;;;;;;;;18.90;63.20;;;;;;4498392;31;20021;-64
2022/09/18 11:14:43;;;;;;;;;;;18.90;63.20;;;;;;4478489;31;22642;-64
2022/09/18 11:17:19;;;;;;;;;;;18.90;63.20;;;;;;4493640;31;20025;-65
2022/09/18 11:19:48;;;;;;;;;;;18.90;63.20;;;;;;4494471;31;20036;-64
2022/09/18 11:22:33;;;;;;;;;;;18.90;63.10;;;;;;4498615;31;20041;-64
2022/09/18 11:25:18;;;;;;;;;;;18.90;63.00;;;;;;4497792;31;20119;-64
2022/09/18 11:27:45;;;;;;;;;;;18.90;63.00;;;;;;4497573;31;20024;-64
2022/09/18 11:30:31;;;;;;;;;;;18.90;63.00;;;;;;4498428;31;20033;-64
2022/09/18 11:33:16;;;;;;;;;;;18.90;63.00;;;;;;4493154;31;20144;-64
2022/09/18 11:35:46;;;;;;;;;;;18.90;63.00;;;;;;4487353;31;20064;-64
2022/09/18 11:38:14;;;;;;;;;;;18.90;62.90;;;;;;4470479;31;20032;-64
2022/09/18 11:40:41;;;;;;;;;;;18.90;62.90;;;;;;4497447;31;20091;-64
2022/09/18 11:43:15;;;;;;;;;;;18.90;62.70;;;;;;4498391;31;20053;-64
2022/09/18 11:45:50;;;;;;;;;;;18.90;62.70;;;;;;4487943;31;20040;-65
2022/09/18 11:48:25;;;;;;;;;;;18.90;62.70;;;;;;4497596;31;20481;-64
2022/09/18 11:50:53;;;;;;;;;;;18.90;62.70;;;;;;4497438;31;20082;-64
2022/09/18 11:53:23;;;;;;;;;;;18.90;62.70;;;;;;4490033;31;20033;-64
2022/09/18 11:55:51;;;;;;;;;;;18.90;62.70;;;;;;4486256;31;20126;-64
2022/09/18 11:58:20;;;;;;;;;;;18.90;62.60;;;;;;4492607;31;20155;-64
2022/09/18 12:00:49;;;;;;;;;;;18.90;62.50;;;;;;4497861;31;20025;-64
2022/09/18 12:03:20;;;;;;;;;;;18.90;62.60;;;;;;4496767;31;20033;-64
2022/09/18 12:05:54;;;;;;;;;;;18.90;62.50;;;;;;4497292;31;20036;-64
2022/09/18 12:08:20;;;;;;;;;;;18.90;62.60;;;;;;4497511;31;20109;-64
2022/09/18 12:10:49;;;;;;;;;;;18.90;62.60;;;;;;4496759;31;20033;-64
2022/09/18 12:13:27;;;;;;;;;;;18.90;62.70;;;;;;4497919;31;20059;-64
2022/09/18 12:16:08;;;;;;;;;;;18.90;62.80;;;;;;4510864;31;20048;-64
2022/09/18 12:18:41;;;;;;;;;;;18.90;62.80;;;;;;4512872;31;20622;-64
2022/09/18 12:21:12;;;;;;;;;;;18.90;62.70;;;;;;4513108;31;20117;-64
2022/09/18 12:23:38;;;;;;;;;;;18.90;62.80;;;;;;4513054;31;20017;-64
2022/09/18 12:26:04;;;;;;;;;;;18.90;62.90;;;;;;4512142;31;20059;-64
2022/09/18 12:28:30;;;;;;;;;;;18.90;62.90;;;;;;4512382;31;20051;-64
2022/09/18 12:31:14;;;;;;;;;;;18.90;62.80;;;;;;4513024;31;20024;-66
2022/09/18 12:33:56;;;;;;;;;;;18.90;63.00;;;;;;4513703;31;20044;-65
2022/09/18 12:36:30;;;;;;;;;;;18.90;63.00;;;;;;4513190;31;20025;-65
2022/09/18 12:39:02;;;;;;;;;;;19.00;63.00;;;;;;4514295;31;20048;-64
2022/09/18 12:41:47;;;;;;;;;;;18.90;62.70;;;;;;4512876;31;20033;-65
2022/09/18 12:44:24;;;;;;;;;;;18.90;63.20;;;;;;4513813;31;20033;-63
2022/09/18 12:46:49;;;;;;;;;;;18.90;63.30;;;;;;4512964;31;20035;-64
2022/09/18 12:49:34;;;;;;;;;;;18.90;63.70;;;;;;4508802;31;20029;-63
2022/09/18 12:52:21;;;;;;;;;;;18.90;63.70;;;;;;4514122;31;20064;-67
2022/09/18 12:54:57;;;;;;;;;;;18.90;63.80;;;;;;4513051;31;20031;-65
2022/09/18 12:57:37;;;;;;;;;;;18.90;63.80;;;;;;4512487;31;20025;-66
2022/09/18 13:00:11;;;;;;;;;;;18.90;63.80;;;;;;4511692;31;20161;-65
2022/09/18 13:02:51;;;;;;;;;;;19.00;63.90;;;;;;4512354;31;20029;-65
2022/09/18 13:05:23;;;;;;;;;;;19.00;63.90;;;;;;4511915;31;20038;-65
2022/09/18 13:07:52;;;;;;;;;;;19.00;63.90;;;;;;4511955;31;20047;-64
2022/09/18 13:10:30;;;;;;;;;;;18.90;63.70;;;;;;4510347;31;20043;-64
2022/09/18 13:12:56;;;;;;;;;;;18.90;63.70;;;;;;4513267;31;20170;-66
2022/09/18 13:15:44;;;;;;;;;;;18.90;63.70;;;;;;4511079;31;20036;-65
2022/09/18 13:18:21;;;;;;;;;;;18.90;63.50;;;;;;4504482;31;20576;-63
2022/09/18 13:20:46;;;;;;;;;;;18.90;63.90;;;;;;4510839;31;20043;-65
2022/09/18 13:23:20;;;;;;;;;;;18.90;64.10;;;;;;4511725;31;20028;-63
2022/09/18 13:25:48;;;;;;;;;;;18.90;64.00;;;;;;4512205;31;20147;-64
2022/09/18 13:28:15;;;;;;;;;;;18.90;63.90;;;;;;4510914;31;20094;-66
2022/09/18 13:30:42;;;;;;;;;;;18.90;63.80;;;;;;4511908;31;20050;-66
2022/09/18 13:33:20;;;;;;;;;;;18.90;63.50;;;;;;4503462;31;20048;-66
2022/09/18 13:35:49;;;;;;;;;;;18.90;63.40;;;;;;4511068;31;20090;-66
2022/09/18 13:38:19;;;;;;;;;;;18.90;63.30;;;;;;4509937;31;20096;-66
2022/09/18 13:40:47;;;;;;;;;;;18.90;63.00;;;;;;4510752;31;20497;-64
2022/09/18 13:43:14;;;;;;;;;;;18.90;63.00;;;;;;4512880;31;20035;-64
2022/09/18 13:45:40;;;;;;;;;;;18.90;63.20;;;;;;4510471;31;20097;-65
2022/09/18 13:48:15;;;;;;;;;;;18.90;63.20;;;;;;4510374;31;20043;-65
2022/09/18 13:50:54;;;;;;;;;;;19.00;63.50;;;;;;4511120;31;20075;-65
2022/09/18 13:53:31;;;;;;;;;;;19.00;63.60;;;;;;4511132;31;20068;-63
2022/09/18 13:55:56;;;;;;;;;;;19.00;63.60;;;;;;4511365;31;20036;-62
2022/09/18 13:58:33;;;;;;;;;;;19.00;63.40;;;;;;4511092;31;20620;-63
2022/09/18 14:01:00;;;;;;;;;;;19.00;63.20;;;;;;4512165;31;20047;-63
2022/09/18 14:03:26;;;;;;;;;;;19.00;63.10;;;;;;4511739;31;20032;-63
2022/09/18 14:05:52;;;;;;;;;;;19.10;63.10;;;;;;4511609;31;20039;-63
2022/09/18 14:08:18;;;;;;;;;;;19.10;63.00;;;;;;4511695;31;20029;-63
2022/09/18 14:10:55;;;;;;;;;;;19.10;63.00;;;;;;4513813;31;20039;-64
2022/09/18 14:13:33;;;;;;;;;;;19.10;62.90;;;;;;4515198;31;20036;-63
2022/09/18 14:16:08;;;;;;;;;;;19.10;62.70;;;;;;4513788;31;20021;-63
2022/09/18 14:18:37;;;;;;;;;;;19.20;62.70;;;;;;4512705;31;20151;-63
2022/09/18 14:21:22;;;;;;;;;;;19.20;62.70;;;;;;4514651;31;20024;-64
2022/09/18 14:24:17;;;;;;;;;;;19.20;62.60;;;;;;4513280;31;20041;-64
2022/09/18 14:26:44;;;;;;;;;;;19.20;62.50;;;;;;4457353;31;20041;-63
2022/09/18 14:29:09;;;;;;;;;;;19.20;62.50;;;;;;4514377;31;20029;-64